首页
METAR-TAF:

METAR-TAF

机场 :

图尔, 法国

纬度: 47-27N, 经度: 000-43E, 海拔: 108米

当前天气观测

该预报发布于31分钟前的04:00 UTC
风速9节,风向西转西南,在南转西南西之间变化
温度 12°C
湿度 76%
气压 1004 hPa
能见度10公里或以上
少量云层高于3900英尺
多云层高于4500英尺
多云层高于5200英尺

METAR: LFOT 050400Z AUTO 24009KT 210V270 9999 FEW039 BKN045 BKN052 12/08 Q1004 TEMPO BKN012

时间: 06:31 (04:31 UTC)

预报

该预报发布于5小时和31分钟前的23:00 UTC
预报有效从05日的 00点(UTC)到 05日的 24点(UTC)
风速8节,风向西转西北
能见度10公里或以上
多云层高于3500英尺
成为
从 05日的 03点(UTC)到 05日的 05点(UTC)
风速10节,风向西转西南
短暂存在
从 05日的 05点(UTC)到 05日的 09点(UTC)
多云层高于1200英尺
小雨
成为
从 05日的 10点(UTC)到 05日的 12点(UTC)
风速15节,风向西转西南,有时为25节阵风
短暂存在
从 05日的 14点(UTC)到 05日的 20点(UTC)
风速18节,风向西,有时为32节阵风
多云层高于4500英尺
小阵雨
成为
从 05日的 20点(UTC)到 05日的 22点(UTC)
多云层高于2000英尺
短暂存在
从 05日的 20点(UTC)到 05日的 24点(UTC)
多云层高于1200英尺
小雨

TAF: LFOT 042300Z 0500/0524 30008KT 9999 BKN035 BECMG 0503/0505 24010KT TEMPO 0505/0509 -RA BKN012 BECMG 0510/0512 24015G25KT TEMPO 0514/0520 26018G32KT -SHRA BKN045 BECMG 0520/0522 BKN020 TEMPO 0520/0524 -RA BKN012

超过4000个机场的气象观测和天气预报(METAR&TAF报告)。

可查询的气象台以黄色和红色小点在地图上表示。

将鼠标移到小点上方,可查看气象台名称。

然后点击查看天气观测和预报。

如需切换地图:点击带黑十字的绿色按钮放大地图;点击带横线的绿色按钮缩小地图;或者点击绿色箭头查看邻近地区的地图。


METAR-TAF: